sensor_id;sensor_type;location;lat;lon;timestamp;pressure;altitude;pressure_sealevel;temperature;humidity
57412;BME280;43247;52.828;-8.980;2022-12-15T00:00:28;101550.49;;;1.40;69.74
57412;BME280;43247;52.828;-8.980;2022-12-15T00:01:28;101552.77;;;2.31;68.01
57412;BME280;43247;52.828;-8.980;2022-12-15T00:02:29;101550.09;;;3.59;65.19
57412;BME280;43247;52.828;-8.980;2022-12-15T00:03:29;101552.93;;;4.79;62.25
57412;BME280;43247;52.828;-8.980;2022-12-15T00:04:29;101549.35;;;5.28;60.43
57412;BME280;43247;52.828;-8.980;2022-12-15T00:05:29;101547.38;;;5.31;59.80
57412;BME280;43247;52.828;-8.980;2022-12-15T00:06:30;101552.51;;;5.13;59.70
57412;BME280;43247;52.828;-8.980;2022-12-15T00:07:31;101552.46;;;4.77;60.29
57412;BME280;43247;52.828;-8.980;2022-12-15T00:08:31;101549.22;;;4.34;61.08
57412;BME280;43247;52.828;-8.980;2022-12-15T00:09:32;101549.76;;;3.92;62.01
57412;BME280;43247;52.828;-8.980;2022-12-15T00:10:32;101546.14;;;3.49;63.08
57412;BME280;43247;52.828;-8.980;2022-12-15T00:11:33;101548.82;;;3.13;63.95
57412;BME280;43247;52.828;-8.980;2022-12-15T00:12:33;101547.58;;;2.81;64.77
57412;BME280;43247;52.828;-8.980;2022-12-15T00:13:33;101547.32;;;2.52;65.70
57412;BME280;43247;52.828;-8.980;2022-12-15T00:14:34;101548.74;;;2.27;66.39
57412;BME280;43247;52.828;-8.980;2022-12-15T00:15:35;101547.38;;;2.06;67.00
57412;BME280;43247;52.828;-8.980;2022-12-15T00:16:35;101549.25;;;1.84;67.57
57412;BME280;43247;52.828;-8.980;2022-12-15T00:17:35;101550.20;;;1.66;67.96
57412;BME280;43247;52.828;-8.980;2022-12-15T00:18:36;101552.37;;;1.48;68.34
57412;BME280;43247;52.828;-8.980;2022-12-15T00:19:37;101553.14;;;1.33;68.67
57412;BME280;43247;52.828;-8.980;2022-12-15T00:20:37;101558.82;;;1.16;69.05
57412;BME280;43247;52.828;-8.980;2022-12-15T00:21:37;101559.04;;;1.08;69.45
57412;BME280;43247;52.828;-8.980;2022-12-15T00:22:38;101555.45;;;1.35;69.09
57412;BME280;43247;52.828;-8.980;2022-12-15T00:23:39;101557.74;;;2.27;67.51
57412;BME280;43247;52.828;-8.980;2022-12-15T00:24:39;101557.83;;;3.53;64.76
57412;BME280;43247;52.828;-8.980;2022-12-15T00:25:42;101559.65;;;4.96;61.55
57412;BME280;43247;52.828;-8.980;2022-12-15T00:26:41;101554.94;;;6.35;58.48
57412;BME280;43247;52.828;-8.980;2022-12-15T00:27:41;101553.99;;;7.33;56.15
57412;BME280;43247;52.828;-8.980;2022-12-15T00:28:42;101553.78;;;7.49;55.26
57412;BME280;43247;52.828;-8.980;2022-12-15T00:29:42;101552.12;;;7.31;54.91
57412;BME280;43247;52.828;-8.980;2022-12-15T00:30:43;101551.34;;;6.87;55.50
57412;BME280;43247;52.828;-8.980;2022-12-15T00:31:44;101551.17;;;6.23;56.47
57412;BME280;43247;52.828;-8.980;2022-12-15T00:32:44;101550.69;;;5.59;57.68
57412;BME280;43247;52.828;-8.980;2022-12-15T00:33:44;101553.50;;;4.97;58.99
57412;BME280;43247;52.828;-8.980;2022-12-15T00:34:44;101552.56;;;4.34;60.43
57412;BME280;43247;52.828;-8.980;2022-12-15T00:35:45;101551.39;;;3.85;61.65
57412;BME280;43247;52.828;-8.980;2022-12-15T00:36:46;101551.99;;;3.41;62.91
57412;BME280;43247;52.828;-8.980;2022-12-15T00:37:46;101551.41;;;3.01;63.96
57412;BME280;43247;52.828;-8.980;2022-12-15T00:38:47;101552.58;;;2.68;64.95
57412;BME280;43247;52.828;-8.980;2022-12-15T00:39:48;101556.67;;;2.41;65.70
57412;BME280;43247;52.828;-8.980;2022-12-15T00:40:50;101554.47;;;2.16;66.32
57412;BME280;43247;52.828;-8.980;2022-12-15T00:41:49;101558.96;;;1.95;66.87
57412;BME280;43247;52.828;-8.980;2022-12-15T00:42:49;101558.97;;;1.73;67.39
57412;BME280;43247;52.828;-8.980;2022-12-15T00:43:50;101556.51;;;1.55;67.89
57412;BME280;43247;52.828;-8.980;2022-12-15T00:44:50;101555.99;;;1.35;68.38
57412;BME280;43247;52.828;-8.980;2022-12-15T00:45:51;101554.43;;;1.23;68.90
57412;BME280;43247;52.828;-8.980;2022-12-15T00:46:51;101553.12;;;1.47;68.78
57412;BME280;43247;52.828;-8.980;2022-12-15T00:47:52;101555.10;;;2.37;67.13
57412;BME280;43247;52.828;-8.980;2022-12-15T00:48:52;101554.40;;;3.62;64.42
57412;BME280;43247;52.828;-8.980;2022-12-15T00:49:52;101558.15;;;4.80;61.67
57412;BME280;43247;52.828;-8.980;2022-12-15T00:50:53;101555.67;;;5.29;60.04
57412;BME280;43247;52.828;-8.980;2022-12-15T00:51:53;101553.70;;;5.33;59.48
57412;BME280;43247;52.828;-8.980;2022-12-15T00:52:54;101560.69;;;5.15;59.41
57412;BME280;43247;52.828;-8.980;2022-12-15T00:53:55;101558.09;;;4.76;60.03
57412;BME280;43247;52.828;-8.980;2022-12-15T00:54:56;101556.41;;;4.31;60.90
57412;BME280;43247;52.828;-8.980;2022-12-15T00:55:56;101555.98;;;3.86;62.13
57412;BME280;43247;52.828;-8.980;2022-12-15T00:56:57;101559.25;;;3.47;62.90
57412;BME280;43247;52.828;-8.980;2022-12-15T00:57:58;101560.06;;;3.09;63.89
57412;BME280;43247;52.828;-8.980;2022-12-15T00:58:58;101558.16;;;2.73;64.84
57412;BME280;43247;52.828;-8.980;2022-12-15T00:59:59;101561.07;;;2.45;65.68
57412;BME280;43247;52.828;-8.980;2022-12-15T01:01:05;101559.29;;;2.19;66.42
57412;BME280;43247;52.828;-8.980;2022-12-15T01:02:00;101559.83;;;1.98;67.04
57412;BME280;43247;52.828;-8.980;2022-12-15T01:03:00;101562.25;;;1.77;67.50
57412;BME280;43247;52.828;-8.980;2022-12-15T01:04:00;101558.29;;;1.57;68.04
57412;BME280;43247;52.828;-8.980;2022-12-15T01:05:00;101557.69;;;1.40;68.49
57412;BME280;43247;52.828;-8.980;2022-12-15T01:06:04;101557.52;;;1.25;68.88
57412;BME280;43247;52.828;-8.980;2022-12-15T01:07:01;101557.39;;;1.44;68.96
57412;BME280;43247;52.828;-8.980;2022-12-15T01:08:01;101559.85;;;2.28;67.39
57412;BME280;43247;52.828;-8.980;2022-12-15T01:09:04;101557.32;;;3.49;64.80
57412;BME280;43247;52.828;-8.980;2022-12-15T01:10:05;101559.53;;;4.96;61.55
57412;BME280;43247;52.828;-8.980;2022-12-15T01:11:04;101555.17;;;6.36;58.47
57412;BME280;43247;52.828;-8.980;2022-12-15T01:12:05;101556.29;;;7.37;56.18
57412;BME280;43247;52.828;-8.980;2022-12-15T01:13:05;101555.99;;;7.55;55.16
57412;BME280;43247;52.828;-8.980;2022-12-15T01:14:06;101557.60;;;7.34;55.22
57412;BME280;43247;52.828;-8.980;2022-12-15T01:15:07;101557.85;;;6.87;55.53
57412;BME280;43247;52.828;-8.980;2022-12-15T01:16:09;101556.96;;;6.28;56.44
57412;BME280;43247;52.828;-8.980;2022-12-15T01:17:07;101558.30;;;5.60;57.84
57412;BME280;43247;52.828;-8.980;2022-12-15T01:18:08;101560.99;;;4.96;59.09
57412;BME280;43247;52.828;-8.980;2022-12-15T01:19:08;101559.73;;;4.40;60.54
57412;BME280;43247;52.828;-8.980;2022-12-15T01:20:10;101560.15;;;3.87;61.75
57412;BME280;43247;52.828;-8.980;2022-12-15T01:21:10;101563.88;;;3.41;62.89
57412;BME280;43247;52.828;-8.980;2022-12-15T01:22:10;101564.48;;;3.02;63.95
57412;BME280;43247;52.828;-8.980;2022-12-15T01:23:10;101561.51;;;2.67;64.92
57412;BME280;43247;52.828;-8.980;2022-12-15T01:24:11;101560.37;;;2.40;65.77
57412;BME280;43247;52.828;-8.980;2022-12-15T01:25:12;101558.88;;;2.15;66.47
57412;BME280;43247;52.828;-8.980;2022-12-15T01:26:12;101559.28;;;1.94;67.08
57412;BME280;43247;52.828;-8.980;2022-12-15T01:27:13;101558.72;;;1.73;67.55
57412;BME280;43247;52.828;-8.980;2022-12-15T01:28:13;101559.90;;;1.52;68.08
57412;BME280;43247;52.828;-8.980;2022-12-15T01:29:13;101561.51;;;1.35;68.62
57412;BME280;43247;52.828;-8.980;2022-12-15T01:30:18;101565.30;;;1.23;69.09
57412;BME280;43247;52.828;-8.980;2022-12-15T01:31:14;101561.22;;;1.49;68.94
57412;BME280;43247;52.828;-8.980;2022-12-15T01:32:14;101565.53;;;2.40;67.29
57412;BME280;43247;52.828;-8.980;2022-12-15T01:33:17;101563.92;;;3.66;64.59
57412;BME280;43247;52.828;-8.980;2022-12-15T01:34:16;101565.21;;;4.90;61.59
57412;BME280;43247;52.828;-8.980;2022-12-15T01:35:17;101564.52;;;5.39;60.00
57412;BME280;43247;52.828;-8.980;2022-12-15T01:36:17;101562.14;;;5.41;59.44
57412;BME280;43247;52.828;-8.980;2022-12-15T01:37:17;101564.79;;;5.22;59.27
57412;BME280;43247;52.828;-8.980;2022-12-15T01:38:18;101566.05;;;4.84;59.86
57412;BME280;43247;52.828;-8.980;2022-12-15T01:39:19;101564.95;;;4.40;60.80
57412;BME280;43247;52.828;-8.980;2022-12-15T01:40:20;101562.86;;;3.94;61.79
57412;BME280;43247;52.828;-8.980;2022-12-15T01:41:20;101563.82;;;3.54;62.85
57412;BME280;43247;52.828;-8.980;2022-12-15T01:42:20;101565.71;;;3.14;63.88
57412;BME280;43247;52.828;-8.980;2022-12-15T01:43:23;101564.21;;;2.78;64.74
57412;BME280;43247;52.828;-8.980;2022-12-15T01:44:22;101564.70;;;2.48;65.57
57412;BME280;43247;52.828;-8.980;2022-12-15T01:46:23;101557.53;;;1.98;67.08
57412;BME280;43247;52.828;-8.980;2022-12-15T01:47:24;101558.12;;;1.79;67.60
57412;BME280;43247;52.828;-8.980;2022-12-15T01:48:30;101555.33;;;1.59;68.06
57412;BME280;43247;52.828;-8.980;2022-12-15T01:49:26;101555.02;;;1.42;68.53
57412;BME280;43247;52.828;-8.980;2022-12-15T01:50:25;101554.11;;;1.27;68.89
57412;BME280;43247;52.828;-8.980;2022-12-15T01:51:31;101556.20;;;1.43;68.86
57412;BME280;43247;52.828;-8.980;2022-12-15T01:52:25;101555.54;;;2.25;67.26
57412;BME280;43247;52.828;-8.980;2022-12-15T01:53:26;101556.24;;;3.49;64.64
57412;BME280;43247;52.828;-8.980;2022-12-15T01:54:28;101560.88;;;4.93;61.44
57412;BME280;43247;52.828;-8.980;2022-12-15T01:55:27;101556.21;;;6.35;58.30
57412;BME280;43247;52.828;-8.980;2022-12-15T01:56:27;101555.52;;;7.45;55.83
57412;BME280;43247;52.828;-8.980;2022-12-15T01:57:30;101559.11;;;7.69;54.65
57412;BME280;43247;52.828;-8.980;2022-12-15T01:58:27;101558.46;;;7.47;54.62
57412;BME280;43247;52.828;-8.980;2022-12-15T01:59:31;101560.43;;;7.01;55.05
57412;BME280;43247;52.828;-8.980;2022-12-15T02:00:29;101561.17;;;6.41;55.98
57412;BME280;43247;52.828;-8.980;2022-12-15T02:01:30;101565.51;;;5.69;57.23
57412;BME280;43247;52.828;-8.980;2022-12-15T02:02:31;101567.67;;;5.04;58.48
57412;BME280;43247;52.828;-8.980;2022-12-15T02:03:30;101565.78;;;4.45;59.65
57412;BME280;43247;52.828;-8.980;2022-12-15T02:04:31;101567.21;;;3.91;60.93
57412;BME280;43247;52.828;-8.980;2022-12-15T02:05:30;101568.51;;;3.45;62.00
57412;BME280;43247;52.828;-8.980;2022-12-15T02:06:31;101567.25;;;3.03;63.04
57412;BME280;43247;52.828;-8.980;2022-12-15T02:07:31;101566.84;;;2.68;63.93
57412;BME280;43247;52.828;-8.980;2022-12-15T02:08:31;101568.75;;;2.40;64.66
57412;BME280;43247;52.828;-8.980;2022-12-15T02:09:31;101570.14;;;2.14;65.34
57412;BME280;43247;52.828;-8.980;2022-12-15T02:10:43;101571.61;;;1.88;66.00
57412;BME280;43247;52.828;-8.980;2022-12-15T02:11:42;101567.80;;;1.65;66.58
57412;BME280;43247;52.828;-8.980;2022-12-15T02:12:37;101570.39;;;1.47;66.98
57412;BME280;43247;52.828;-8.980;2022-12-15T02:13:38;101573.72;;;1.30;67.44
57412;BME280;43247;52.828;-8.980;2022-12-15T02:14:45;101574.43;;;1.15;67.99
57412;BME280;43247;52.828;-8.980;2022-12-15T02:15:39;101573.89;;;1.29;68.08
57412;BME280;43247;52.828;-8.980;2022-12-15T02:16:48;101569.57;;;2.07;66.66
57412;BME280;43247;52.828;-8.980;2022-12-15T02:17:43;101571.49;;;3.22;64.31
57412;BME280;43247;52.828;-8.980;2022-12-15T02:18:42;101573.78;;;4.58;61.30
57412;BME280;43247;52.828;-8.980;2022-12-15T02:20:44;101571.20;;;7.09;55.81
57412;BME280;43247;52.828;-8.980;2022-12-15T02:21:41;101573.45;;;7.41;54.62
57412;BME280;43247;52.828;-8.980;2022-12-15T02:22:50;101576.34;;;7.20;54.56
57412;BME280;43247;52.828;-8.980;2022-12-15T02:27:51;101579.79;;;4.31;59.04
57412;BME280;43247;52.828;-8.980;2022-12-15T02:28:51;101578.68;;;3.82;60.35
57412;BME280;43247;52.828;-8.980;2022-12-15T02:30:46;101574.83;;;2.92;62.58
57412;BME280;43247;52.828;-8.980;2022-12-15T02:31:48;101572.54;;;2.59;63.67
57412;BME280;43247;52.828;-8.980;2022-12-15T02:32:49;101573.16;;;2.31;64.65
57412;BME280;43247;52.828;-8.980;2022-12-15T02:33:48;101569.94;;;2.04;65.34
57412;BME280;43247;52.828;-8.980;2022-12-15T02:34:47;101571.04;;;1.81;65.88
57412;BME280;43247;52.828;-8.980;2022-12-15T02:35:52;101573.38;;;1.56;66.41
57412;BME280;43247;52.828;-8.980;2022-12-15T02:36:48;101576.59;;;1.38;66.93
57412;BME280;43247;52.828;-8.980;2022-12-15T02:37:46;101577.59;;;1.20;67.29
57412;BME280;43247;52.828;-8.980;2022-12-15T02:38:46;101579.06;;;1.09;67.78
57412;BME280;43247;52.828;-8.980;2022-12-15T02:39:47;101577.46;;;1.21;67.91
57412;BME280;43247;52.828;-8.980;2022-12-15T02:40:47;101575.12;;;1.98;66.64
57412;BME280;43247;52.828;-8.980;2022-12-15T02:41:47;101577.12;;;3.12;64.30
57412;BME280;43247;52.828;-8.980;2022-12-15T02:42:51;101578.03;;;4.48;61.19
57412;BME280;43247;52.828;-8.980;2022-12-15T02:43:48;101578.74;;;5.88;58.21
57412;BME280;43247;52.828;-8.980;2022-12-15T02:44:51;101576.43;;;7.01;55.60
57412;BME280;43247;52.828;-8.980;2022-12-15T02:45:53;101578.42;;;7.26;54.52
57412;BME280;43247;52.828;-8.980;2022-12-15T02:47:04;101578.88;;;7.10;54.33
57412;BME280;43247;52.828;-8.980;2022-12-15T02:47:56;101578.73;;;6.68;54.50
57412;BME280;43247;52.828;-8.980;2022-12-15T02:48:59;101580.49;;;6.09;55.33
57412;BME280;43247;52.828;-8.980;2022-12-15T02:50:06;101583.11;;;5.41;56.53
57412;BME280;43247;52.828;-8.980;2022-12-15T02:51:03;101581.49;;;4.78;58.00
57412;BME280;43247;52.828;-8.980;2022-12-15T02:52:00;101582.04;;;4.22;59.19
57412;BME280;43247;52.828;-8.980;2022-12-15T02:53:01;101583.20;;;3.69;60.60
57412;BME280;43247;52.828;-8.980;2022-12-15T02:54:08;101587.56;;;3.23;61.71
57412;BME280;43247;52.828;-8.980;2022-12-15T02:55:07;101585.96;;;2.83;62.75
57412;BME280;43247;52.828;-8.980;2022-12-15T02:55:59;101585.33;;;2.47;63.69
57412;BME280;43247;52.828;-8.980;2022-12-15T02:57:00;101584.70;;;2.18;64.53
57412;BME280;43247;52.828;-8.980;2022-12-15T02:58:00;101586.78;;;1.95;65.25
57412;BME280;43247;52.828;-8.980;2022-12-15T02:59:02;101584.08;;;1.72;65.91
57412;BME280;43247;52.828;-8.980;2022-12-15T03:00:00;101583.02;;;1.53;66.41
57412;BME280;43247;52.828;-8.980;2022-12-15T03:01:01;101584.15;;;1.28;67.01
57412;BME280;43247;52.828;-8.980;2022-12-15T03:01:59;101581.54;;;1.13;67.58
57412;BME280;43247;52.828;-8.980;2022-12-15T03:02:58;101582.92;;;0.97;68.02
57412;BME280;43247;52.828;-8.980;2022-12-15T03:04:01;101583.72;;;0.85;68.44
57412;BME280;43247;52.828;-8.980;2022-12-15T03:04:59;101584.45;;;0.74;68.72
57412;BME280;43247;52.828;-8.980;2022-12-15T03:05:59;101585.78;;;0.62;69.14
57412;BME280;43247;52.828;-8.980;2022-12-15T03:07:03;101586.42;;;0.53;69.34
57412;BME280;43247;52.828;-8.980;2022-12-15T03:08:01;101590.52;;;0.43;69.70
57412;BME280;43247;52.828;-8.980;2022-12-15T03:09:01;101588.75;;;0.34;69.92
57412;BME280;43247;52.828;-8.980;2022-12-15T03:10:05;101592.15;;;0.29;70.07
57412;BME280;43247;52.828;-8.980;2022-12-15T03:11:03;101591.18;;;0.19;70.31
57412;BME280;43247;52.828;-8.980;2022-12-15T03:12:05;101588.48;;;0.14;70.44
57412;BME280;43247;52.828;-8.980;2022-12-15T03:13:04;101585.32;;;0.07;70.55
57412;BME280;43247;52.828;-8.980;2022-12-15T03:14:05;101584.62;;;-0.00;70.85
57412;BME280;43247;52.828;-8.980;2022-12-15T03:15:06;101579.20;;;-0.05;70.96
57412;BME280;43247;52.828;-8.980;2022-12-15T03:16:06;101582.00;;;-0.09;71.03
57412;BME280;43247;52.828;-8.980;2022-12-15T03:17:07;101585.80;;;-0.17;71.12
57412;BME280;43247;52.828;-8.980;2022-12-15T03:18:07;101587.70;;;-0.21;71.30
57412;BME280;43247;52.828;-8.980;2022-12-15T03:19:07;101588.72;;;-0.25;71.38
57412;BME280;43247;52.828;-8.980;2022-12-15T03:20:09;101590.50;;;-0.29;71.55
57412;BME280;43247;52.828;-8.980;2022-12-15T03:21:08;101587.98;;;-0.34;71.72
57412;BME280;43247;52.828;-8.980;2022-12-15T03:22:09;101588.05;;;-0.38;71.72
57412;BME280;43247;52.828;-8.980;2022-12-15T03:23:09;101589.27;;;-0.40;71.87
57412;BME280;43247;52.828;-8.980;2022-12-15T03:24:10;101588.58;;;-0.46;71.93
57412;BME280;43247;52.828;-8.980;2022-12-15T03:25:10;101590.29;;;-0.50;71.84
57412;BME280;43247;52.828;-8.980;2022-12-15T03:26:11;101590.52;;;-0.55;71.96
57412;BME280;43247;52.828;-8.980;2022-12-15T03:27:11;101589.97;;;-0.58;71.99
57412;BME280;43247;52.828;-8.980;2022-12-15T03:28:12;101588.99;;;-0.61;72.00
57412;BME280;43247;52.828;-8.980;2022-12-15T03:29:13;101590.32;;;-0.66;72.11
57412;BME280;43247;52.828;-8.980;2022-12-15T03:30:14;101588.93;;;-0.70;72.22
57412;BME280;43247;52.828;-8.980;2022-12-15T03:31:14;101588.43;;;-0.71;72.19
57412;BME280;43247;52.828;-8.980;2022-12-15T03:32:14;101586.50;;;-0.74;72.12
57412;BME280;43247;52.828;-8.980;2022-12-15T03:33:15;101588.27;;;-0.79;72.11
57412;BME280;43247;52.828;-8.980;2022-12-15T03:34:15;101589.96;;;-0.83;72.10
57412;BME280;43247;52.828;-8.980;2022-12-15T03:35:15;101589.03;;;-0.87;72.18
57412;BME280;43247;52.828;-8.980;2022-12-15T03:36:16;101587.34;;;-0.91;72.17
57412;BME280;43247;52.828;-8.980;2022-12-15T03:37:16;101585.43;;;-0.94;72.24
57412;BME280;43247;52.828;-8.980;2022-12-15T03:38:17;101586.68;;;-0.95;72.29
57412;BME280;43247;52.828;-8.980;2022-12-15T03:39:17;101587.34;;;-1.00;72.51
57412;BME280;43247;52.828;-8.980;2022-12-15T03:40:18;101585.65;;;-1.03;72.58
57412;BME280;43247;52.828;-8.980;2022-12-15T03:41:19;101585.28;;;-1.03;72.64
57412;BME280;43247;52.828;-8.980;2022-12-15T03:42:19;101586.13;;;-1.08;72.77
57412;BME280;43247;52.828;-8.980;2022-12-15T03:43:21;101585.28;;;-1.09;72.81
57412;BME280;43247;52.828;-8.980;2022-12-15T03:44:21;101584.53;;;-1.10;72.84
57412;BME280;43247;52.828;-8.980;2022-12-15T03:45:24;101584.12;;;-1.11;72.88
57412;BME280;43247;52.828;-8.980;2022-12-15T03:46:22;101578.65;;;-1.12;72.88
57412;BME280;43247;52.828;-8.980;2022-12-15T03:47:22;101577.71;;;-1.14;72.95
57412;BME280;43247;52.828;-8.980;2022-12-15T03:48:23;101577.82;;;-1.15;73.02
57412;BME280;43247;52.828;-8.980;2022-12-15T03:49:23;101576.66;;;-1.18;73.10
57412;BME280;43247;52.828;-8.980;2022-12-15T03:50:25;101575.32;;;-1.20;73.23
57412;BME280;43247;52.828;-8.980;2022-12-15T03:51:23;101576.38;;;-1.22;73.31
57412;BME280;43247;52.828;-8.980;2022-12-15T03:52:24;101577.46;;;-1.23;73.34
57412;BME280;43247;52.828;-8.980;2022-12-15T03:53:24;101580.40;;;-1.24;73.36
57412;BME280;43247;52.828;-8.980;2022-12-15T03:54:25;101576.26;;;-1.24;73.36
57412;BME280;43247;52.828;-8.980;2022-12-15T03:55:26;101576.57;;;-1.26;73.43
57412;BME280;43247;52.828;-8.980;2022-12-15T03:56:26;101576.09;;;-1.28;73.50
57412;BME280;43247;52.828;-8.980;2022-12-15T03:57:26;101580.48;;;-1.28;73.59
57412;BME280;43247;52.828;-8.980;2022-12-15T03:58:27;101580.99;;;-1.29;73.60
57412;BME280;43247;52.828;-8.980;2022-12-15T03:59:27;101581.37;;;-1.30;73.63
57412;BME280;43247;52.828;-8.980;2022-12-15T04:00:28;101581.19;;;-1.31;73.68
57412;BME280;43247;52.828;-8.980;2022-12-15T04:01:30;101582.69;;;-1.30;73.64
57412;BME280;43247;52.828;-8.980;2022-12-15T04:02:29;101583.91;;;-1.30;73.68
57412;BME280;43247;52.828;-8.980;2022-12-15T04:03:29;101581.15;;;-1.33;73.70
57412;BME280;43247;52.828;-8.980;2022-12-15T04:04:29;101579.45;;;-1.32;73.71
57412;BME280;43247;52.828;-8.980;2022-12-15T04:05:31;101580.78;;;-1.30;73.64
57412;BME280;43247;52.828;-8.980;2022-12-15T04:06:30;101582.91;;;-1.32;73.70
57412;BME280;43247;52.828;-8.980;2022-12-15T04:07:30;101582.74;;;-1.32;73.69
57412;BME280;43247;52.828;-8.980;2022-12-15T04:08:31;101582.99;;;-1.32;73.71
57412;BME280;43247;52.828;-8.980;2022-12-15T04:09:31;101582.34;;;-1.33;73.72
57412;BME280;43247;52.828;-8.980;2022-12-15T04:10:34;101581.66;;;-1.33;73.74
57412;BME280;43247;52.828;-8.980;2022-12-15T04:11:33;101580.66;;;-1.35;73.71
57412;BME280;43247;52.828;-8.980;2022-12-15T04:12:33;101580.01;;;-1.34;73.72
57412;BME280;43247;52.828;-8.980;2022-12-15T04:13:33;101576.55;;;-1.32;73.66
57412;BME280;43247;52.828;-8.980;2022-12-15T04:14:34;101574.25;;;-1.34;73.75
57412;BME280;43247;52.828;-8.980;2022-12-15T04:15:36;101571.59;;;-1.36;73.70
57412;BME280;43247;52.828;-8.980;2022-12-15T04:16:36;101572.99;;;-1.36;73.70
57412;BME280;43247;52.828;-8.980;2022-12-15T04:17:36;101573.58;;;-1.38;73.73
57412;BME280;43247;52.828;-8.980;2022-12-15T04:18:37;101571.65;;;-1.36;73.70
57412;BME280;43247;52.828;-8.980;2022-12-15T04:19:37;101572.96;;;-1.38;73.75
57412;BME280;43247;52.828;-8.980;2022-12-15T04:20:38;101575.00;;;-1.37;73.73
57412;BME280;43247;52.828;-8.980;2022-12-15T04:21:38;101579.06;;;-1.38;73.81
57412;BME280;43247;52.828;-8.980;2022-12-15T04:22:39;101577.31;;;-1.39;73.85
57412;BME280;43247;52.828;-8.980;2022-12-15T04:23:38;101576.86;;;-1.42;73.91
57412;BME280;43247;52.828;-8.980;2022-12-15T04:24:39;101577.82;;;-1.41;73.98
57412;BME280;43247;52.828;-8.980;2022-12-15T04:25:39;101578.76;;;-1.42;73.99
57412;BME280;43247;52.828;-8.980;2022-12-15T04:26:39;101579.84;;;-1.41;74.00
57412;BME280;43247;52.828;-8.980;2022-12-15T04:27:40;101580.55;;;-1.44;74.03
57412;BME280;43247;52.828;-8.980;2022-12-15T04:28:40;101578.72;;;-1.45;74.08
57412;BME280;43247;52.828;-8.980;2022-12-15T04:29:40;101580.80;;;-1.44;74.11
57412;BME280;43247;52.828;-8.980;2022-12-15T04:30:44;101577.50;;;-1.45;74.19
57412;BME280;43247;52.828;-8.980;2022-12-15T04:31:41;101578.88;;;-1.46;74.22
57412;BME280;43247;52.828;-8.980;2022-12-15T04:32:42;101577.16;;;-1.48;74.30
57412;BME280;43247;52.828;-8.980;2022-12-15T04:33:45;101575.68;;;-1.45;74.27
57412;BME280;43247;52.828;-8.980;2022-12-15T04:34:43;101574.78;;;-1.47;74.30
57412;BME280;43247;52.828;-8.980;2022-12-15T04:35:43;101573.98;;;-1.48;74.37
57412;BME280;43247;52.828;-8.980;2022-12-15T04:36:45;101573.09;;;-1.48;74.36
57412;BME280;43247;52.828;-8.980;2022-12-15T04:37:44;101573.43;;;-1.48;74.45
57412;BME280;43247;52.828;-8.980;2022-12-15T04:38:44;101572.61;;;-1.49;74.52
57412;BME280;43247;52.828;-8.980;2022-12-15T04:39:46;101569.69;;;-1.50;74.55
57412;BME280;43247;52.828;-8.980;2022-12-15T04:40:45;101564.31;;;-1.51;74.59
57412;BME280;43247;52.828;-8.980;2022-12-15T04:41:46;101565.47;;;-1.52;74.69
57412;BME280;43247;52.828;-8.980;2022-12-15T04:42:46;101562.74;;;-1.52;74.72
57412;BME280;43247;52.828;-8.980;2022-12-15T04:43:46;101564.25;;;-1.50;74.70
57412;BME280;43247;52.828;-8.980;2022-12-15T04:44:48;101565.43;;;-1.49;74.69
57412;BME280;43247;52.828;-8.980;2022-12-15T04:45:47;101567.13;;;-1.49;74.69
57412;BME280;43247;52.828;-8.980;2022-12-15T04:46:48;101570.02;;;-1.50;74.70
57412;BME280;43247;52.828;-8.980;2022-12-15T04:47:48;101574.84;;;-1.49;74.70
57412;BME280;43247;52.828;-8.980;2022-12-15T04:48:49;101577.58;;;-1.49;74.78
57412;BME280;43247;52.828;-8.980;2022-12-15T04:49:50;101580.81;;;-1.49;74.74
57412;BME280;43247;52.828;-8.980;2022-12-15T04:50:50;101580.41;;;-1.52;74.86
57412;BME280;43247;52.828;-8.980;2022-12-15T04:51:51;101579.21;;;-1.51;74.83
57412;BME280;43247;52.828;-8.980;2022-12-15T04:52:52;101578.40;;;-1.51;74.84
57412;BME280;43247;52.828;-8.980;2022-12-15T04:53:53;101579.08;;;-1.50;74.88
57412;BME280;43247;52.828;-8.980;2022-12-15T04:54:53;101580.45;;;-1.49;74.87
57412;BME280;43247;52.828;-8.980;2022-12-15T04:55:54;101578.23;;;-1.50;74.84
57412;BME280;43247;52.828;-8.980;2022-12-15T04:56:54;101576.41;;;-1.52;74.94
57412;BME280;43247;52.828;-8.980;2022-12-15T04:57:55;101577.44;;;-1.50;74.90
57412;BME280;43247;52.828;-8.980;2022-12-15T04:58:56;101575.74;;;-1.49;74.88
57412;BME280;43247;52.828;-8.980;2022-12-15T04:59:56;101577.73;;;-1.51;74.98
57412;BME280;43247;52.828;-8.980;2022-12-15T05:00:57;101577.19;;;-1.50;74.91
57412;BME280;43247;52.828;-8.980;2022-12-15T05:01:58;101579.84;;;-1.51;74.98
57412;BME280;43247;52.828;-8.980;2022-12-15T05:03:03;101582.59;;;-1.50;74.97
57412;BME280;43247;52.828;-8.980;2022-12-15T05:04:00;101584.18;;;-1.51;75.05
57412;BME280;43247;52.828;-8.980;2022-12-15T05:05:00;101584.23;;;-1.49;74.98
57412;BME280;43247;52.828;-8.980;2022-12-15T05:06:01;101585.10;;;-1.50;75.05
57412;BME280;43247;52.828;-8.980;2022-12-15T05:07:02;101584.32;;;-1.51;75.12
57412;BME280;43247;52.828;-8.980;2022-12-15T05:08:02;101584.31;;;-1.51;75.15
57412;BME280;43247;52.828;-8.980;2022-12-15T05:09:02;101583.57;;;-1.51;75.19
57412;BME280;43247;52.828;-8.980;2022-12-15T05:10:04;101582.85;;;-1.52;75.28
57412;BME280;43247;52.828;-8.980;2022-12-15T05:11:04;101583.48;;;-1.51;75.26
57412;BME280;43247;52.828;-8.980;2022-12-15T05:12:05;101584.63;;;-1.52;75.31
57412;BME280;43247;52.828;-8.980;2022-12-15T05:13:06;101586.16;;;-1.53;75.32
57412;BME280;43247;52.828;-8.980;2022-12-15T05:14:05;101587.80;;;-1.52;75.41
57412;BME280;43247;52.828;-8.980;2022-12-15T05:15:07;101588.84;;;-1.49;75.34
57412;BME280;43247;52.828;-8.980;2022-12-15T05:16:07;101588.90;;;-1.51;75.43
57412;BME280;43247;52.828;-8.980;2022-12-15T05:17:07;101587.26;;;-1.52;75.50
57412;BME280;43247;52.828;-8.980;2022-12-15T05:18:08;101587.82;;;-1.52;75.55
57412;BME280;43247;52.828;-8.980;2022-12-15T05:19:08;101587.91;;;-1.52;75.56
57412;BME280;43247;52.828;-8.980;2022-12-15T05:20:09;101588.64;;;-1.52;75.53
57412;BME280;43247;52.828;-8.980;2022-12-15T05:21:09;101588.89;;;-1.49;75.39